sensor_id;sensor_type;location;lat;lon;timestamp;temperature;humidity
19232;DHT22;9750;48.730;10.294;2022-08-11T01:57:36;18.80;69.20
19232;DHT22;9750;48.730;10.294;2022-08-11T02:00:13;18.80;69.40
19232;DHT22;9750;48.730;10.294;2022-08-11T02:02:48;18.80;69.10
19232;DHT22;9750;48.730;10.294;2022-08-11T02:05:41;18.70;69.20
19232;DHT22;9750;48.730;10.294;2022-08-11T02:08:20;18.70;69.30
19232;DHT22;9750;48.730;10.294;2022-08-11T02:10:55;18.70;69.40
19232;DHT22;9750;48.730;10.294;2022-08-11T02:13:46;18.70;69.60
19232;DHT22;9750;48.730;10.294;2022-08-11T02:16:20;18.60;69.50
19232;DHT22;9750;48.730;10.294;2022-08-11T02:18:59;18.60;69.80
19232;DHT22;9750;48.730;10.294;2022-08-11T02:21:54;18.60;70.00
19232;DHT22;9750;48.730;10.294;2022-08-11T02:24:51;18.60;70.20
19232;DHT22;9750;48.730;10.294;2022-08-11T02:27:23;18.60;70.10
19232;DHT22;9750;48.730;10.294;2022-08-11T02:29:57;18.60;70.20
19232;DHT22;9750;48.730;10.294;2022-08-11T02:32:35;18.60;70.40
19232;DHT22;9750;48.730;10.294;2022-08-11T02:35:25;18.50;70.20
19232;DHT22;9750;48.730;10.294;2022-08-11T02:38:05;18.50;70.50
19232;DHT22;9750;48.730;10.294;2022-08-11T02:40:44;18.50;70.40
19232;DHT22;9750;48.730;10.294;2022-08-11T02:43:41;18.50;70.40
19232;DHT22;9750;48.730;10.294;2022-08-11T02:46:22;18.50;70.70
19232;DHT22;9750;48.730;10.294;2022-08-11T02:48:58;18.40;71.90
19232;DHT22;9750;48.730;10.294;2022-08-11T02:51:58;18.40;71.00
19232;DHT22;9750;48.730;10.294;2022-08-11T02:54:41;18.40;71.00
19232;DHT22;9750;48.730;10.294;2022-08-11T02:57:16;18.40;71.10
19232;DHT22;9750;48.730;10.294;2022-08-11T02:59:48;18.40;71.30
19232;DHT22;9750;48.730;10.294;2022-08-11T03:02:30;18.40;71.30
19232;DHT22;9750;48.730;10.294;2022-08-11T03:05:06;18.40;72.00
19232;DHT22;9750;48.730;10.294;2022-08-11T03:07:48;18.30;71.70
19232;DHT22;9750;48.730;10.294;2022-08-11T03:10:20;18.30;71.70
19232;DHT22;9750;48.730;10.294;2022-08-11T03:12:52;18.30;71.80
19232;DHT22;9750;48.730;10.294;2022-08-11T03:15:45;18.30;71.70
19232;DHT22;9750;48.730;10.294;2022-08-11T03:18:55;18.30;72.00
19232;DHT22;9750;48.730;10.294;2022-08-11T03:21:26;18.20;71.90
19232;DHT22;9750;48.730;10.294;2022-08-11T03:23:59;18.20;72.10
19232;DHT22;9750;48.730;10.294;2022-08-11T03:26:30;18.20;72.20
19232;DHT22;9750;48.730;10.294;2022-08-11T03:29:05;18.10;72.30
19232;DHT22;9750;48.730;10.294;2022-08-11T03:31:39;18.10;72.50
19232;DHT22;9750;48.730;10.294;2022-08-11T03:34:16;18.10;72.60
19232;DHT22;9750;48.730;10.294;2022-08-11T03:37:13;18.10;72.50
19232;DHT22;9750;48.730;10.294;2022-08-11T03:40:11;18.10;72.60
19232;DHT22;9750;48.730;10.294;2022-08-11T03:42:45;18.00;73.00
19232;DHT22;9750;48.730;10.294;2022-08-11T03:45:24;18.00;72.90
19232;DHT22;9750;48.730;10.294;2022-08-11T03:48:04;18.00;73.10
19232;DHT22;9750;48.730;10.294;2022-08-11T03:50:50;18.00;73.40
19232;DHT22;9750;48.730;10.294;2022-08-11T03:56:37;17.90;73.30
19232;DHT22;9750;48.730;10.294;2022-08-11T04:09:05;17.90;74.10
19232;DHT22;9750;48.730;10.294;2022-08-11T04:12:03;17.90;74.10
19232;DHT22;9750;48.730;10.294;2022-08-11T04:14:46;17.90;74.20
19232;DHT22;9750;48.730;10.294;2022-08-11T04:18:05;17.90;74.20
19232;DHT22;9750;48.730;10.294;2022-08-11T04:21:14;17.90;74.50
19232;DHT22;9750;48.730;10.294;2022-08-11T04:27:18;17.90;74.80
19232;DHT22;9750;48.730;10.294;2022-08-11T04:30:02;17.90;74.90
19232;DHT22;9750;48.730;10.294;2022-08-11T04:32:51;17.90;75.00
19232;DHT22;9750;48.730;10.294;2022-08-11T04:35:33;17.90;75.10
19232;DHT22;9750;48.730;10.294;2022-08-11T04:38:33;17.90;75.00
19232;DHT22;9750;48.730;10.294;2022-08-11T04:48:05;17.90;75.00
19232;DHT22;9750;48.730;10.294;2022-08-11T04:51:07;18.00;75.00
19232;DHT22;9750;48.730;10.294;2022-08-11T04:54:02;18.00;75.10
19232;DHT22;9750;48.730;10.294;2022-08-11T04:56:49;18.00;75.10
19232;DHT22;9750;48.730;10.294;2022-08-11T05:00:00;18.00;75.10
19232;DHT22;9750;48.730;10.294;2022-08-11T05:09:22;18.10;75.30
19232;DHT22;9750;48.730;10.294;2022-08-11T05:12:08;18.10;75.20
19232;DHT22;9750;48.730;10.294;2022-08-11T05:14:40;18.10;75.20
19232;DHT22;9750;48.730;10.294;2022-08-11T05:17:40;18.10;75.30
19232;DHT22;9750;48.730;10.294;2022-08-11T05:20:43;18.20;75.20
19232;DHT22;9750;48.730;10.294;2022-08-11T05:23:29;18.20;75.40
19232;DHT22;9750;48.730;10.294;2022-08-11T05:26:16;18.20;75.20
19232;DHT22;9750;48.730;10.294;2022-08-11T05:29:22;18.20;75.20
19232;DHT22;9750;48.730;10.294;2022-08-11T05:32:14;18.30;75.50
19232;DHT22;9750;48.730;10.294;2022-08-11T05:35:03;18.30;75.50
19232;DHT22;9750;48.730;10.294;2022-08-11T05:37:37;18.30;75.40
19232;DHT22;9750;48.730;10.294;2022-08-11T05:40:09;18.30;75.50
19232;DHT22;9750;48.730;10.294;2022-08-11T05:42:56;18.40;75.70
19232;DHT22;9750;48.730;10.294;2022-08-11T05:45:55;18.40;75.80
19232;DHT22;9750;48.730;10.294;2022-08-11T05:48:40;18.50;75.60
19232;DHT22;9750;48.730;10.294;2022-08-11T05:51:34;18.50;75.70
19232;DHT22;9750;48.730;10.294;2022-08-11T05:54:19;18.60;75.70
19232;DHT22;9750;48.730;10.294;2022-08-11T05:57:04;18.60;75.50
19232;DHT22;9750;48.730;10.294;2022-08-11T05:59:32;18.70;75.40
19232;DHT22;9750;48.730;10.294;2022-08-11T06:02:01;18.70;75.20
19232;DHT22;9750;48.730;10.294;2022-08-11T06:04:30;18.80;75.20
19232;DHT22;9750;48.730;10.294;2022-08-11T06:07:01;18.80;75.20
19232;DHT22;9750;48.730;10.294;2022-08-11T06:09:31;18.80;75.20
19232;DHT22;9750;48.730;10.294;2022-08-11T06:12:05;18.90;75.20
19232;DHT22;9750;48.730;10.294;2022-08-11T06:15:05;19.00;75.00
19232;DHT22;9750;48.730;10.294;2022-08-11T06:24:12;19.10;74.50
19232;DHT22;9750;48.730;10.294;2022-08-11T06:27:06;19.20;73.90
19232;DHT22;9750;48.730;10.294;2022-08-11T06:30:15;19.30;74.10
19232;DHT22;9750;48.730;10.294;2022-08-11T06:36:10;19.40;73.80
19232;DHT22;9750;48.730;10.294;2022-08-11T06:39:04;19.50;73.60
19232;DHT22;9750;48.730;10.294;2022-08-11T06:41:47;19.50;73.30
19232;DHT22;9750;48.730;10.294;2022-08-11T06:44:25;19.60;74.00
19232;DHT22;9750;48.730;10.294;2022-08-11T06:46:55;19.60;73.50
19232;DHT22;9750;48.730;10.294;2022-08-11T06:49:36;19.70;73.30
19232;DHT22;9750;48.730;10.294;2022-08-11T06:52:29;19.70;73.10
19232;DHT22;9750;48.730;10.294;2022-08-11T06:55:06;19.70;73.10
19232;DHT22;9750;48.730;10.294;2022-08-11T06:57:40;19.80;72.60
19232;DHT22;9750;48.730;10.294;2022-08-11T07:00:33;19.90;72.40
19232;DHT22;9750;48.730;10.294;2022-08-11T07:57:57;20.80;69.00
19232;DHT22;9750;48.730;10.294;2022-08-11T08:08:30;21.00;68.40
19232;DHT22;9750;48.730;10.294;2022-08-11T08:11:20;21.10;68.00
19232;DHT22;9750;48.730;10.294;2022-08-11T08:14:08;21.20;67.20
19232;DHT22;9750;48.730;10.294;2022-08-11T08:27:41;21.50;66.00
19232;DHT22;9750;48.730;10.294;2022-08-11T08:56:31;22.10;63.00
19232;DHT22;9750;48.730;10.294;2022-08-11T08:59:04;22.20;62.80
19232;DHT22;9750;48.730;10.294;2022-08-11T09:01:39;22.30;62.70
19232;DHT22;9750;48.730;10.294;2022-08-11T09:04:10;22.30;62.00
19232;DHT22;9750;48.730;10.294;2022-08-11T09:06:46;22.30;60.50
19232;DHT22;9750;48.730;10.294;2022-08-11T09:09:14;22.40;60.60
19232;DHT22;9750;48.730;10.294;2022-08-11T09:11:55;22.40;60.80
19232;DHT22;9750;48.730;10.294;2022-08-11T09:14:26;22.50;60.50
19232;DHT22;9750;48.730;10.294;2022-08-11T09:17:12;22.50;60.60
19232;DHT22;9750;48.730;10.294;2022-08-11T09:19:40;22.50;60.10
19232;DHT22;9750;48.730;10.294;2022-08-11T09:22:08;22.60;60.60
19232;DHT22;9750;48.730;10.294;2022-08-11T09:24:58;22.60;60.20
19232;DHT22;9750;48.730;10.294;2022-08-11T09:27:50;22.70;60.20
19232;DHT22;9750;48.730;10.294;2022-08-11T09:30:25;22.80;61.10
19232;DHT22;9750;48.730;10.294;2022-08-11T09:33:03;22.80;59.00
19232;DHT22;9750;48.730;10.294;2022-08-11T09:35:33;22.90;59.10
19232;DHT22;9750;48.730;10.294;2022-08-11T09:38:19;22.90;58.20
19232;DHT22;9750;48.730;10.294;2022-08-11T09:41:10;23.00;59.10
19232;DHT22;9750;48.730;10.294;2022-08-11T09:47:02;23.10;58.40
19232;DHT22;9750;48.730;10.294;2022-08-11T09:52:35;23.30;58.30
19232;DHT22;9750;48.730;10.294;2022-08-11T09:55:13;23.30;57.30
19232;DHT22;9750;48.730;10.294;2022-08-11T09:57:52;23.40;56.90
19232;DHT22;9750;48.730;10.294;2022-08-11T10:00:37;23.50;57.40
19232;DHT22;9750;48.730;10.294;2022-08-11T10:03:43;23.50;57.20
19232;DHT22;9750;48.730;10.294;2022-08-11T10:06:39;23.60;57.30
19232;DHT22;9750;48.730;10.294;2022-08-11T10:09:25;23.60;55.40
19232;DHT22;9750;48.730;10.294;2022-08-11T10:12:00;23.70;56.60
19232;DHT22;9750;48.730;10.294;2022-08-11T10:14:31;23.70;54.80
19232;DHT22;9750;48.730;10.294;2022-08-11T10:17:21;23.80;54.60
19232;DHT22;9750;48.730;10.294;2022-08-11T10:19:51;23.80;55.30
19232;DHT22;9750;48.730;10.294;2022-08-11T10:23:09;23.90;56.20
19232;DHT22;9750;48.730;10.294;2022-08-11T10:25:37;23.90;55.40
19232;DHT22;9750;48.730;10.294;2022-08-11T10:28:26;24.00;54.30
19232;DHT22;9750;48.730;10.294;2022-08-11T10:30:55;24.00;53.60
19232;DHT22;9750;48.730;10.294;2022-08-11T10:33:44;24.00;54.60
19232;DHT22;9750;48.730;10.294;2022-08-11T10:36:31;24.10;53.10
19232;DHT22;9750;48.730;10.294;2022-08-11T10:39:02;24.20;53.50
19232;DHT22;9750;48.730;10.294;2022-08-11T10:41:34;24.20;53.60
19232;DHT22;9750;48.730;10.294;2022-08-11T10:44:19;24.20;53.30
19232;DHT22;9750;48.730;10.294;2022-08-11T10:46:54;24.30;53.60
19232;DHT22;9750;48.730;10.294;2022-08-11T10:49:39;24.40;53.40
19232;DHT22;9750;48.730;10.294;2022-08-11T10:52:12;24.40;52.30
19232;DHT22;9750;48.730;10.294;2022-08-11T10:54:57;24.40;50.30
19232;DHT22;9750;48.730;10.294;2022-08-11T10:57:42;24.30;50.50
19232;DHT22;9750;48.730;10.294;2022-08-11T12:16:38;25.60;50.30
19232;DHT22;9750;48.730;10.294;2022-08-11T12:19:08;25.60;50.10
19232;DHT22;9750;48.730;10.294;2022-08-11T12:21:37;25.60;49.40
19232;DHT22;9750;48.730;10.294;2022-08-11T12:24:27;25.60;50.30
19232;DHT22;9750;48.730;10.294;2022-08-11T12:27:12;25.70;49.10
19232;DHT22;9750;48.730;10.294;2022-08-11T12:30:10;25.70;50.30
19232;DHT22;9750;48.730;10.294;2022-08-11T12:32:48;25.80;49.90
19232;DHT22;9750;48.730;10.294;2022-08-11T12:35:29;25.80;50.50
19232;DHT22;9750;48.730;10.294;2022-08-11T12:38:04;25.80;50.00
19232;DHT22;9750;48.730;10.294;2022-08-11T12:40:33;25.90;50.60
19232;DHT22;9750;48.730;10.294;2022-08-11T12:43:20;25.90;48.70
19232;DHT22;9750;48.730;10.294;2022-08-11T12:46:07;25.90;48.70
19232;DHT22;9750;48.730;10.294;2022-08-11T12:48:42;25.90;48.60
19232;DHT22;9750;48.730;10.294;2022-08-11T12:51:31;25.90;48.20
19232;DHT22;9750;48.730;10.294;2022-08-11T12:54:26;25.80;49.10
19232;DHT22;9750;48.730;10.294;2022-08-11T12:56:58;25.90;49.40
19232;DHT22;9750;48.730;10.294;2022-08-11T13:06:37;26.10;48.40
19232;DHT22;9750;48.730;10.294;2022-08-11T13:12:11;26.20;48.60
19232;DHT22;9750;48.730;10.294;2022-08-11T13:14:56;26.20;47.30
19232;DHT22;9750;48.730;10.294;2022-08-11T13:17:43;26.20;46.10
19232;DHT22;9750;48.730;10.294;2022-08-11T13:20:57;26.20;45.30
19232;DHT22;9750;48.730;10.294;2022-08-11T13:24:03;26.20;46.20
19232;DHT22;9750;48.730;10.294;2022-08-11T13:26:32;26.20;45.30
19232;DHT22;9750;48.730;10.294;2022-08-11T13:29:01;26.20;46.50
19232;DHT22;9750;48.730;10.294;2022-08-11T13:42:22;26.50;47.60
19232;DHT22;9750;48.730;10.294;2022-08-11T13:44:50;26.60;47.50
19232;DHT22;9750;48.730;10.294;2022-08-11T13:47:18;26.60;46.40
19232;DHT22;9750;48.730;10.294;2022-08-11T13:49:48;26.60;46.00
19232;DHT22;9750;48.730;10.294;2022-08-11T13:52:44;26.70;46.00
19232;DHT22;9750;48.730;10.294;2022-08-11T13:55:17;26.80;45.40
19232;DHT22;9750;48.730;10.294;2022-08-11T13:58:17;26.80;44.90
19232;DHT22;9750;48.730;10.294;2022-08-11T14:34:07;27.50;44.80
19232;DHT22;9750;48.730;10.294;2022-08-11T14:52:15;27.80;43.50
19232;DHT22;9750;48.730;10.294;2022-08-11T14:58:36;27.90;44.80
19232;DHT22;9750;48.730;10.294;2022-08-11T15:01:10;28.00;44.30
19232;DHT22;9750;48.730;10.294;2022-08-11T15:03:55;28.10;44.50
19232;DHT22;9750;48.730;10.294;2022-08-11T15:06:24;28.20;44.60
19232;DHT22;9750;48.730;10.294;2022-08-11T15:08:56;28.30;44.80
19232;DHT22;9750;48.730;10.294;2022-08-11T15:18:51;28.30;44.10
19232;DHT22;9750;48.730;10.294;2022-08-11T15:21:38;28.30;44.30
19232;DHT22;9750;48.730;10.294;2022-08-11T15:24:26;28.40;44.30
19232;DHT22;9750;48.730;10.294;2022-08-11T15:44:32;28.70;43.60
19232;DHT22;9750;48.730;10.294;2022-08-11T15:47:25;28.70;44.90
19232;DHT22;9750;48.730;10.294;2022-08-11T15:49:54;28.80;43.90
19232;DHT22;9750;48.730;10.294;2022-08-11T15:53:04;28.90;43.90
19232;DHT22;9750;48.730;10.294;2022-08-11T15:55:54;28.90;43.70
19232;DHT22;9750;48.730;10.294;2022-08-11T16:09:37;28.70;44.90
19232;DHT22;9750;48.730;10.294;2022-08-11T16:40:50;28.90;44.60
19232;DHT22;9750;48.730;10.294;2022-08-11T16:43:11;28.90;44.70
19232;DHT22;9750;48.730;10.294;2022-08-11T16:46:02;28.80;44.40
19232;DHT22;9750;48.730;10.294;2022-08-11T16:48:48;28.90;44.30
19232;DHT22;9750;48.730;10.294;2022-08-11T16:51:50;28.90;43.90
19232;DHT22;9750;48.730;10.294;2022-08-11T17:06:05;28.80;44.60
19232;DHT22;9750;48.730;10.294;2022-08-11T17:15:43;28.80;44.80
19232;DHT22;9750;48.730;10.294;2022-08-11T17:18:29;28.80;44.40
19232;DHT22;9750;48.730;10.294;2022-08-11T17:21:14;28.70;44.50
19232;DHT22;9750;48.730;10.294;2022-08-11T17:46:22;27.80;45.90
19232;DHT22;9750;48.730;10.294;2022-08-11T17:49:08;27.70;46.40
19232;DHT22;9750;48.730;10.294;2022-08-11T17:51:38;27.60;46.80
19232;DHT22;9750;48.730;10.294;2022-08-11T17:54:25;27.50;46.80
19232;DHT22;9750;48.730;10.294;2022-08-11T17:57:10;27.40;47.70
19232;DHT22;9750;48.730;10.294;2022-08-11T17:59:57;27.30;48.50
19232;DHT22;9750;48.730;10.294;2022-08-11T18:02:29;27.10;47.80
19232;DHT22;9750;48.730;10.294;2022-08-11T18:05:15;27.00;48.50
19232;DHT22;9750;48.730;10.294;2022-08-11T18:07:45;26.90;47.90
19232;DHT22;9750;48.730;10.294;2022-08-11T18:10:32;26.80;48.00
19232;DHT22;9750;48.730;10.294;2022-08-11T18:13:20;26.80;48.10
19232;DHT22;9750;48.730;10.294;2022-08-11T18:16:07;26.60;48.40
19232;DHT22;9750;48.730;10.294;2022-08-11T19:03:31;24.90;51.40
19232;DHT22;9750;48.730;10.294;2022-08-11T19:18:09;24.40;53.60
19232;DHT22;9750;48.730;10.294;2022-08-11T19:24:21;24.10;54.90
19232;DHT22;9750;48.730;10.294;2022-08-11T20:23:36;23.00;54.30
19232;DHT22;9750;48.730;10.294;2022-08-11T20:26:43;22.90;54.10
19232;DHT22;9750;48.730;10.294;2022-08-11T20:29:29;22.90;54.30
19232;DHT22;9750;48.730;10.294;2022-08-11T20:32:16;22.90;54.20
19232;DHT22;9750;48.730;10.294;2022-08-11T20:35:02;22.80;54.50
19232;DHT22;9750;48.730;10.294;2022-08-11T20:37:48;22.80;54.70
19232;DHT22;9750;48.730;10.294;2022-08-11T20:40:39;22.80;54.70
19232;DHT22;9750;48.730;10.294;2022-08-11T20:43:25;22.70;55.10
19232;DHT22;9750;48.730;10.294;2022-08-11T20:46:10;22.70;54.80
19232;DHT22;9750;48.730;10.294;2022-08-11T20:48:58;22.70;55.00
19232;DHT22;9750;48.730;10.294;2022-08-11T20:51:45;22.70;55.00
19232;DHT22;9750;48.730;10.294;2022-08-11T20:54:30;22.70;55.00
19232;DHT22;9750;48.730;10.294;2022-08-11T20:57:17;22.70;55.20
19232;DHT22;9750;48.730;10.294;2022-08-11T21:00:04;22.60;55.90
19232;DHT22;9750;48.730;10.294;2022-08-11T21:02:49;22.60;55.50
19232;DHT22;9750;48.730;10.294;2022-08-11T21:05:38;22.60;55.60
19232;DHT22;9750;48.730;10.294;2022-08-11T21:08:26;22.50;56.10
19232;DHT22;9750;48.730;10.294;2022-08-11T21:11:14;22.50;56.20
19232;DHT22;9750;48.730;10.294;2022-08-11T21:14:03;22.50;56.40
19232;DHT22;9750;48.730;10.294;2022-08-11T21:16:50;22.50;56.40
19232;DHT22;9750;48.730;10.294;2022-08-11T21:19:38;22.40;56.50
19232;DHT22;9750;48.730;10.294;2022-08-11T21:22:29;22.40;56.50
19232;DHT22;9750;48.730;10.294;2022-08-11T21:25:16;22.40;56.80
19232;DHT22;9750;48.730;10.294;2022-08-11T21:28:04;22.30;57.10
19232;DHT22;9750;48.730;10.294;2022-08-11T21:30:52;22.30;57.30
19232;DHT22;9750;48.730;10.294;2022-08-11T21:33:39;22.30;57.40
19232;DHT22;9750;48.730;10.294;2022-08-11T21:36:25;22.20;57.50
19232;DHT22;9750;48.730;10.294;2022-08-11T21:39:12;22.20;57.80
19232;DHT22;9750;48.730;10.294;2022-08-11T21:42:00;22.20;57.90
19232;DHT22;9750;48.730;10.294;2022-08-11T21:44:46;22.10;58.00
19232;DHT22;9750;48.730;10.294;2022-08-11T21:47:34;22.10;58.10
19232;DHT22;9750;48.730;10.294;2022-08-11T21:50:19;22.10;58.40
19232;DHT22;9750;48.730;10.294;2022-08-11T21:53:04;22.10;58.30
19232;DHT22;9750;48.730;10.294;2022-08-11T21:55:50;22.10;58.30
19232;DHT22;9750;48.730;10.294;2022-08-11T21:58:38;22.00;58.40
19232;DHT22;9750;48.730;10.294;2022-08-11T22:01:24;22.00;58.50
19232;DHT22;9750;48.730;10.294;2022-08-11T22:04:12;21.90;58.80
19232;DHT22;9750;48.730;10.294;2022-08-11T22:07:00;21.90;58.80
19232;DHT22;9750;48.730;10.294;2022-08-11T22:09:45;21.90;58.70
19232;DHT22;9750;48.730;10.294;2022-08-11T22:12:35;21.90;58.80
19232;DHT22;9750;48.730;10.294;2022-08-11T22:15:20;21.80;58.90
19232;DHT22;9750;48.730;10.294;2022-08-11T22:18:05;21.80;59.10
19232;DHT22;9750;48.730;10.294;2022-08-11T22:20:52;21.80;59.40
19232;DHT22;9750;48.730;10.294;2022-08-11T22:23:38;21.80;59.40
19232;DHT22;9750;48.730;10.294;2022-08-11T22:26:24;21.80;59.40
19232;DHT22;9750;48.730;10.294;2022-08-11T22:29:10;21.70;59.40
19232;DHT22;9750;48.730;10.294;2022-08-11T22:31:55;21.70;59.60
19232;DHT22;9750;48.730;10.294;2022-08-11T22:34:41;21.70;59.90
19232;DHT22;9750;48.730;10.294;2022-08-11T22:37:29;21.60;60.00
19232;DHT22;9750;48.730;10.294;2022-08-11T22:40:16;21.60;60.00
19232;DHT22;9750;48.730;10.294;2022-08-11T22:43:01;21.60;60.10
19232;DHT22;9750;48.730;10.294;2022-08-11T22:45:45;21.50;60.10
19232;DHT22;9750;48.730;10.294;2022-08-11T22:48:30;21.60;60.40
19232;DHT22;9750;48.730;10.294;2022-08-11T22:51:18;21.50;60.50
19232;DHT22;9750;48.730;10.294;2022-08-11T22:54:06;21.40;60.80
19232;DHT22;9750;48.730;10.294;2022-08-11T22:56:52;21.40;61.20
19232;DHT22;9750;48.730;10.294;2022-08-11T22:59:38;21.30;61.40
19232;DHT22;9750;48.730;10.294;2022-08-11T23:02:25;21.30;61.70
19232;DHT22;9750;48.730;10.294;2022-08-11T23:05:13;21.20;61.70
19232;DHT22;9750;48.730;10.294;2022-08-11T23:07:59;21.20;62.00
19232;DHT22;9750;48.730;10.294;2022-08-11T23:10:46;21.10;62.10
19232;DHT22;9750;48.730;10.294;2022-08-11T23:13:32;21.10;62.20
19232;DHT22;9750;48.730;10.294;2022-08-11T23:16:17;21.10;62.60
19232;DHT22;9750;48.730;10.294;2022-08-11T23:19:03;21.00;62.50
19232;DHT22;9750;48.730;10.294;2022-08-11T23:21:47;21.00;62.70
19232;DHT22;9750;48.730;10.294;2022-08-11T23:24:32;21.00;62.70
19232;DHT22;9750;48.730;10.294;2022-08-11T23:27:19;20.90;62.90
19232;DHT22;9750;48.730;10.294;2022-08-11T23:30:05;20.90;63.00
19232;DHT22;9750;48.730;10.294;2022-08-11T23:32:55;20.90;63.20
19232;DHT22;9750;48.730;10.294;2022-08-11T23:35:44;20.80;63.40
19232;DHT22;9750;48.730;10.294;2022-08-11T23:38:29;20.80;63.50
19232;DHT22;9750;48.730;10.294;2022-08-11T23:41:14;20.70;63.60
19232;DHT22;9750;48.730;10.294;2022-08-11T23:44:02;20.70;63.90
19232;DHT22;9750;48.730;10.294;2022-08-11T23:46:48;20.70;64.00
19232;DHT22;9750;48.730;10.294;2022-08-11T23:49:35;20.60;64.20
19232;DHT22;9750;48.730;10.294;2022-08-11T23:52:20;20.60;64.20
19232;DHT22;9750;48.730;10.294;2022-08-11T23:55:06;20.50;65.30
19232;DHT22;9750;48.730;10.294;2022-08-11T23:57:52;20.50;64.60
